createdAt,value
2018-09-14T00:00:32.719Z,1013.95
2018-09-14T00:01:32.797Z,1013.97
2018-09-14T00:02:32.751Z,1013.92
2018-09-14T00:03:32.952Z,1013.95
2018-09-14T00:04:32.669Z,1013.96
2018-09-14T00:05:32.764Z,1013.96
2018-09-14T00:06:32.664Z,1013.95
2018-09-14T00:07:32.759Z,1013.93
2018-09-14T00:08:32.902Z,1013.90
2018-09-14T00:09:32.902Z,1013.93
2018-09-14T00:10:32.719Z,1013.92
2018-09-14T00:11:32.865Z,1013.93
2018-09-14T00:12:32.584Z,1013.92
2018-09-14T00:13:32.586Z,1013.93
2018-09-14T00:14:32.945Z,1013.93
2018-09-14T00:15:32.551Z,1013.90
2018-09-14T00:16:32.653Z,1013.91
2018-09-14T00:17:32.619Z,1013.89
2018-09-14T00:18:32.881Z,1013.90
2018-09-14T00:19:32.529Z,1013.90
2018-09-14T00:20:32.814Z,1013.93
2018-09-14T00:21:32.500Z,1013.93
2018-09-14T00:22:32.753Z,1013.94
2018-09-14T00:23:32.468Z,1013.87
2018-09-14T00:24:32.456Z,1013.88
2018-09-14T00:25:32.448Z,1013.84
2018-09-14T00:26:32.712Z,1013.91
2018-09-14T00:27:32.425Z,1013.87
2018-09-14T00:28:32.428Z,1013.87
2018-09-14T00:29:32.573Z,1013.89
2018-09-14T00:30:32.396Z,1013.91
2018-09-14T00:31:32.399Z,1013.91
2018-09-14T00:32:32.639Z,1013.91
2018-09-14T00:33:32.360Z,1013.89
2018-09-14T00:34:32.345Z,1013.89
2018-09-14T00:35:32.427Z,1013.92
2018-09-14T00:36:32.338Z,1013.86
2018-09-14T00:37:32.726Z,1013.89
2018-09-14T00:38:32.409Z,1013.90
2018-09-14T00:39:32.296Z,1013.95
2018-09-14T00:40:32.286Z,1013.94
2018-09-14T00:41:32.284Z,1013.96
2018-09-14T00:42:32.386Z,1013.95
2018-09-14T00:43:32.368Z,1013.97
2018-09-14T00:44:32.242Z,1013.92
2018-09-14T00:45:32.227Z,1013.97
2018-09-14T00:46:32.453Z,1013.92
2018-09-14T00:47:32.330Z,1013.90
2018-09-14T00:48:32.197Z,1013.93
2018-09-14T00:49:32.184Z,1013.92
2018-09-14T00:50:32.537Z,1013.94
2018-09-14T00:51:32.170Z,1013.95
2018-09-14T00:52:32.275Z,1013.94
2018-09-14T00:53:32.143Z,1013.97
2018-09-14T00:54:32.398Z,1013.95
2018-09-14T00:55:32.121Z,1013.93
2018-09-14T00:56:32.381Z,1013.93
2018-09-14T00:57:32.117Z,1013.97
2018-09-14T00:58:32.516Z,1013.99
2018-09-14T00:59:32.390Z,1013.98
2018-09-14T01:00:32.092Z,1014.00
2018-09-14T01:01:32.324Z,1013.97
2018-09-14T01:02:32.077Z,1013.99
2018-09-14T01:03:32.036Z,1013.97
2018-09-14T01:04:32.295Z,1013.94
2018-09-14T01:05:32.016Z,1013.97
2018-09-14T01:06:32.126Z,1013.99
2018-09-14T01:07:32.401Z,1014.02
2018-09-14T01:08:31.996Z,1014.03
2018-09-14T01:09:32.010Z,1014.01
2018-09-14T01:10:31.968Z,1014.02
2018-09-14T01:11:32.054Z,1014.03
2018-09-14T01:12:31.974Z,1013.99
2018-09-14T01:13:32.455Z,1014.01
2018-09-14T01:14:31.923Z,1013.99
2018-09-14T01:15:32.018Z,1013.97
2018-09-14T01:16:31.899Z,1013.94
2018-09-14T01:17:31.899Z,1013.99
2018-09-14T01:18:31.881Z,1013.97
2018-09-14T01:19:31.865Z,1013.97
2018-09-14T01:20:32.122Z,1013.94
2018-09-14T01:21:31.842Z,1013.93
2018-09-14T01:22:32.129Z,1013.95
2018-09-14T01:23:31.828Z,1013.91
2018-09-14T01:24:31.885Z,1013.89
2018-09-14T01:25:31.808Z,1013.90
2018-09-14T01:26:31.791Z,1013.87
2018-09-14T01:27:31.904Z,1013.87
2018-09-14T01:28:31.771Z,1013.89
2018-09-14T01:29:32.030Z,1013.90
2018-09-14T01:30:31.759Z,1013.87
2018-09-14T01:31:31.751Z,1013.85
2018-09-14T01:32:31.741Z,1013.85
2018-09-14T01:33:31.718Z,1013.87
2018-09-14T01:34:31.710Z,1013.83
2018-09-14T01:35:31.747Z,1013.86
2018-09-14T01:36:31.686Z,1013.86
2018-09-14T01:37:31.947Z,1013.81
2018-09-14T01:38:31.766Z,1013.84
2018-09-14T01:39:31.650Z,1013.89
2018-09-14T01:40:31.740Z,1013.85
2018-09-14T01:41:32.007Z,1013.90
2018-09-14T01:42:31.630Z,1013.84
2018-09-14T01:43:31.609Z,1013.88
2018-09-14T01:44:31.595Z,1013.85
2018-09-14T01:45:31.584Z,1013.82
2018-09-14T01:46:31.590Z,1013.85
2018-09-14T01:47:31.706Z,1013.86
2018-09-14T01:48:31.556Z,1013.82
2018-09-14T01:49:31.562Z,1013.86
2018-09-14T01:50:31.676Z,1013.86
2018-09-14T01:51:31.639Z,1013.82
2018-09-14T01:52:31.521Z,1013.90
2018-09-14T01:53:31.617Z,1013.88
2018-09-14T01:54:31.494Z,1013.86
2018-09-14T01:55:34.616Z,1013.85
2018-09-14T01:56:31.795Z,1013.86
2018-09-14T01:57:31.572Z,1013.88
2018-09-14T01:58:31.464Z,1013.83
2018-09-14T01:59:31.491Z,1013.85
2018-09-14T02:00:31.441Z,1013.85
2018-09-14T02:01:31.415Z,1013.81
2018-09-14T02:02:31.521Z,1013.79
2018-09-14T02:03:31.511Z,1013.79
2018-09-14T02:04:31.396Z,1013.81
2018-09-14T02:05:31.376Z,1013.80
2018-09-14T02:06:31.365Z,1013.82
2018-09-14T02:07:31.444Z,1013.81
2018-09-14T02:08:31.902Z,1013.82
2018-09-14T02:09:31.326Z,1013.81
2018-09-14T02:10:31.333Z,1013.76
2018-09-14T02:11:31.309Z,1013.82
2018-09-14T02:12:31.301Z,1013.78
2018-09-14T02:13:31.314Z,1013.80
2018-09-14T02:14:31.969Z,1013.79
2018-09-14T02:15:31.269Z,1013.82
2018-09-14T02:16:31.254Z,1013.80
2018-09-14T02:17:31.240Z,1013.79
2018-09-14T02:18:31.359Z,1013.81
2018-09-14T02:19:31.255Z,1013.79
2018-09-14T02:20:31.211Z,1013.76
2018-09-14T02:21:31.199Z,1013.79
2018-09-14T02:22:31.187Z,1013.77
2018-09-14T02:23:31.264Z,1013.79
2018-09-14T02:24:31.292Z,1013.76
2018-09-14T02:25:31.221Z,1013.77
2018-09-14T02:26:31.260Z,1013.76
2018-09-14T02:27:31.136Z,1013.77
2018-09-14T02:28:31.138Z,1013.70
2018-09-14T02:29:31.225Z,1013.74
2018-09-14T02:30:31.222Z,1013.78
2018-09-14T02:31:31.090Z,1013.74
2018-09-14T02:32:31.367Z,1013.71
2018-09-14T02:33:31.085Z,1013.71
2018-09-14T02:34:31.065Z,1013.72
2018-09-14T02:35:31.051Z,1013.71
2018-09-14T02:36:31.176Z,1013.72
2018-09-14T02:37:31.406Z,1013.71
2018-09-14T02:38:31.045Z,1013.74
2018-09-14T02:39:31.010Z,1013.70
2018-09-14T02:40:31.683Z,1013.74
2018-09-14T02:41:31.895Z,1013.73
2018-09-14T02:42:30.983Z,1013.72
2018-09-14T02:43:30.977Z,1013.73
2018-09-14T02:44:30.956Z,1013.73
2018-09-14T02:45:30.943Z,1013.77
2018-09-14T02:46:30.933Z,1013.78
2018-09-14T02:47:31.011Z,1013.76
2018-09-14T02:48:30.924Z,1013.75
2018-09-14T02:49:30.920Z,1013.74
2018-09-14T02:50:30.894Z,1013.71
2018-09-14T02:51:30.888Z,1013.68
2018-09-14T02:52:31.142Z,1013.69
2018-09-14T02:53:31.682Z,1013.70
2018-09-14T02:54:31.124Z,1013.68
2018-09-14T02:55:30.837Z,1013.71
2018-09-14T02:56:31.097Z,1013.73
2018-09-14T02:57:30.815Z,1013.74
2018-09-14T02:58:30.970Z,1013.79
2018-09-14T02:59:31.165Z,1013.70
2018-09-14T03:00:30.783Z,1013.72
2018-09-14T03:01:30.785Z,1013.76
2018-09-14T03:02:30.762Z,1013.77
2018-09-14T03:03:31.186Z,1013.75
2018-09-14T03:04:30.856Z,1013.73
2018-09-14T03:05:30.728Z,1013.74
2018-09-14T03:06:30.721Z,1013.74
2018-09-14T03:07:30.786Z,1013.79
2018-09-14T03:08:30.712Z,1013.79
2018-09-14T03:09:30.790Z,1013.77
2018-09-14T03:10:30.675Z,1013.75
2018-09-14T03:11:30.787Z,1013.73
2018-09-14T03:12:30.656Z,1013.77
2018-09-14T03:13:30.659Z,1013.72
2018-09-14T03:14:30.636Z,1013.69
2018-09-14T03:15:30.728Z,1013.78
2018-09-14T03:16:30.613Z,1013.74
2018-09-14T03:17:30.612Z,1013.69
2018-09-14T03:18:30.868Z,1013.69
2018-09-14T03:19:30.581Z,1013.68
2018-09-14T03:20:30.587Z,1013.71
2018-09-14T03:21:30.838Z,1013.68
2018-09-14T03:22:30.650Z,1013.70
2018-09-14T03:23:31.077Z,1013.68
2018-09-14T03:24:30.528Z,1013.72
2018-09-14T03:25:30.516Z,1013.74
2018-09-14T03:26:30.508Z,1013.76
2018-09-14T03:27:30.875Z,1013.72
2018-09-14T03:28:30.495Z,1013.76
2018-09-14T03:29:30.486Z,1013.70
2018-09-14T03:30:30.565Z,1013.73
2018-09-14T03:31:30.461Z,1013.74
2018-09-14T03:32:30.461Z,1013.76
2018-09-14T03:33:30.444Z,1013.77
2018-09-14T03:34:30.816Z,1013.75
2018-09-14T03:35:30.672Z,1013.77
2018-09-14T03:36:30.695Z,1013.74
2018-09-14T03:37:30.482Z,1013.74
2018-09-14T03:38:30.499Z,1013.73
2018-09-14T03:39:30.474Z,1013.72
2018-09-14T03:40:30.460Z,1013.71
2018-09-14T03:41:30.339Z,1013.73
2018-09-14T03:42:30.328Z,1013.70
2018-09-14T03:43:30.322Z,1013.72
2018-09-14T03:44:30.328Z,1013.73
2018-09-14T03:45:30.303Z,1013.72
2018-09-14T03:46:30.414Z,1013.74
2018-09-14T03:47:30.286Z,1013.71
2018-09-14T03:48:30.351Z,1013.73
2018-09-14T03:49:30.296Z,1013.74
2018-09-14T03:50:30.249Z,1013.73
2018-09-14T03:51:30.504Z,1013.73
2018-09-14T03:52:30.232Z,1013.73
2018-09-14T03:53:30.227Z,1013.73
2018-09-14T03:54:30.219Z,1013.74
2018-09-14T03:55:30.198Z,1013.71
2018-09-14T03:56:30.206Z,1013.73
2018-09-14T03:57:30.172Z,1013.69
2018-09-14T03:58:30.466Z,1013.68
2018-09-14T03:59:30.458Z,1013.72
2018-09-14T04:00:30.232Z,1013.65
2018-09-14T04:01:30.246Z,1013.69
2018-09-14T04:02:30.234Z,1013.66
2018-09-14T04:03:31.282Z,1013.65
2018-09-14T04:04:30.177Z,1013.63
2018-09-14T04:05:30.472Z,1013.65
2018-09-14T04:06:30.076Z,1013.63
2018-09-14T04:07:30.276Z,1013.63
2018-09-14T04:08:30.053Z,1013.61
2018-09-14T04:09:30.338Z,1013.64
2018-09-14T04:10:30.048Z,1013.59
2018-09-14T04:11:30.026Z,1013.57
2018-09-14T04:12:30.012Z,1013.59
2018-09-14T04:13:30.297Z,1013.50
2018-09-14T04:14:30.279Z,1013.54
2018-09-14T04:15:29.992Z,1013.55
2018-09-14T04:16:29.985Z,1013.54
2018-09-14T04:17:29.959Z,1013.56
2018-09-14T04:18:29.946Z,1013.55
2018-09-14T04:19:29.960Z,1013.56
2018-09-14T04:20:29.934Z,1013.54
2018-09-14T04:21:29.921Z,1013.55
2018-09-14T04:22:29.906Z,1013.53
2018-09-14T04:23:30.012Z,1013.52
2018-09-14T04:24:29.905Z,1013.55
2018-09-14T04:25:30.165Z,1013.53
2018-09-14T04:26:29.864Z,1013.54
2018-09-14T04:27:29.869Z,1013.49
2018-09-14T04:28:29.904Z,1013.50
2018-09-14T04:29:30.049Z,1013.47
2018-09-14T04:30:30.197Z,1013.47
2018-09-14T04:31:29.835Z,1013.49
2018-09-14T04:32:29.812Z,1013.47
2018-09-14T04:33:29.807Z,1013.49
2018-09-14T04:34:29.793Z,1013.50
2018-09-14T04:35:29.784Z,1013.46
2018-09-14T04:36:30.027Z,1013.48
2018-09-14T04:37:30.040Z,1013.46
2018-09-14T04:38:30.084Z,1013.42
2018-09-14T04:39:29.887Z,1013.46
2018-09-14T04:40:29.726Z,1013.51
2018-09-14T04:41:29.738Z,1013.47
2018-09-14T04:42:29.954Z,1013.47
2018-09-14T04:43:29.971Z,1013.51
2018-09-14T04:44:29.683Z,1013.54
2018-09-14T04:45:29.938Z,1013.53
2018-09-14T04:46:29.653Z,1013.53
2018-09-14T04:47:29.657Z,1013.54
2018-09-14T04:48:29.916Z,1013.52
2018-09-14T04:49:29.736Z,1013.51
2018-09-14T04:50:29.997Z,1013.54
2018-09-14T04:51:29.693Z,1013.54
2018-09-14T04:52:29.599Z,1013.51
2018-09-14T04:53:29.679Z,1013.57
2018-09-14T04:54:29.617Z,1013.53
2018-09-14T04:55:29.686Z,1013.55
2018-09-14T04:56:29.736Z,1013.59
2018-09-14T04:57:29.619Z,1013.60
2018-09-14T04:58:29.548Z,1013.63
2018-09-14T04:59:29.627Z,1013.65
2018-09-14T05:00:29.503Z,1013.65
2018-09-14T05:01:29.619Z,1013.63
2018-09-14T05:02:29.755Z,1013.67
2018-09-14T05:03:29.506Z,1013.65
2018-09-14T05:04:29.606Z,1013.62
2018-09-14T05:05:29.465Z,1013.60
2018-09-14T05:06:29.444Z,1013.60
2018-09-14T05:07:29.591Z,1013.59
2018-09-14T05:08:29.436Z,1013.57
2018-09-14T05:09:29.425Z,1013.63
2018-09-14T05:10:29.433Z,1013.64
2018-09-14T05:11:29.507Z,1013.64
2018-09-14T05:12:29.373Z,1013.67
2018-09-14T05:13:29.458Z,1013.65
2018-09-14T05:14:29.761Z,1013.64
2018-09-14T05:15:29.736Z,1013.64
2018-09-14T05:16:29.339Z,1013.63
2018-09-14T05:17:29.400Z,1013.65
2018-09-14T05:18:29.324Z,1013.65
2018-09-14T05:19:29.703Z,1013.69
2018-09-14T05:20:29.290Z,1013.65
2018-09-14T05:21:29.416Z,1013.66
2018-09-14T05:22:29.555Z,1013.67
2018-09-14T05:23:29.262Z,1013.70
2018-09-14T05:24:29.377Z,1013.70
2018-09-14T05:25:29.402Z,1013.70
2018-09-14T05:26:29.341Z,1013.68
2018-09-14T05:27:29.485Z,1013.64
2018-09-14T05:28:29.735Z,1013.68
2018-09-14T05:29:29.250Z,1013.69
2018-09-14T05:30:29.456Z,1013.68
2018-09-14T05:31:29.255Z,1013.70
2018-09-14T05:32:29.181Z,1013.72
2018-09-14T05:33:29.154Z,1013.71
2018-09-14T05:34:29.141Z,1013.75
2018-09-14T05:35:29.177Z,1013.73
2018-09-14T05:36:29.118Z,1013.79
2018-09-14T05:37:29.422Z,1013.80
2018-09-14T05:38:29.249Z,1013.79
2018-09-14T05:39:29.132Z,1013.80
2018-09-14T05:40:29.088Z,1013.81
2018-09-14T05:41:29.090Z,1013.81
2018-09-14T05:42:29.058Z,1013.79
2018-09-14T05:43:29.156Z,1013.78
2018-09-14T05:44:29.579Z,1013.77
2018-09-14T05:45:29.061Z,1013.76
2018-09-14T05:46:29.016Z,1013.77
2018-09-14T05:47:29.015Z,1013.75
2018-09-14T05:48:29.109Z,1013.77
2018-09-14T05:49:28.991Z,1013.77
2018-09-14T05:50:29.111Z,1013.79
2018-09-14T05:51:28.958Z,1013.85
2018-09-14T05:52:28.962Z,1013.87
2018-09-14T05:53:28.937Z,1013.89
2018-09-14T05:54:28.944Z,1013.80
2018-09-14T05:55:28.935Z,1013.78
2018-09-14T05:56:29.103Z,1013.78
2018-09-14T05:57:28.928Z,1013.78
2018-09-14T05:58:28.890Z,1013.79
2018-09-14T05:59:28.982Z,1013.86
2018-09-14T06:00:29.126Z,1013.82
2018-09-14T06:01:28.854Z,1013.85
2018-09-14T06:02:29.201Z,1013.87
2018-09-14T06:03:29.180Z,1013.86
2018-09-14T06:04:27.826Z,1013.87
2018-09-14T06:05:29.184Z,1013.87
2018-09-14T06:06:29.136Z,1013.87
2018-09-14T06:07:29.321Z,1013.86
2018-09-14T06:08:29.197Z,1013.93
2018-09-14T06:09:28.900Z,1013.90
2018-09-14T06:10:28.795Z,1013.91
2018-09-14T06:11:28.874Z,1013.90
2018-09-14T06:12:28.738Z,1013.91
2018-09-14T06:13:28.833Z,1013.92
2018-09-14T06:14:28.763Z,1013.93
2018-09-14T06:15:29.024Z,1013.92
2018-09-14T06:16:28.700Z,1013.93
2018-09-14T06:17:28.786Z,1013.98
2018-09-14T06:18:28.685Z,1013.98
2018-09-14T06:19:29.215Z,1014.03
2018-09-14T06:20:28.714Z,1014.00
2018-09-14T06:21:28.776Z,1014.02
2018-09-14T06:22:28.693Z,1014.06
2018-09-14T06:23:28.715Z,1014.06
2018-09-14T06:24:28.873Z,1014.04
2018-09-14T06:25:28.610Z,1014.06
2018-09-14T06:26:28.591Z,1014.08
2018-09-14T06:27:28.575Z,1014.04
2018-09-14T06:28:28.798Z,1014.09
2018-09-14T06:29:28.583Z,1014.05
2018-09-14T06:30:28.839Z,1014.06
2018-09-14T06:31:28.542Z,1014.07
2018-09-14T06:32:28.585Z,1014.08
2018-09-14T06:33:28.512Z,1014.04
2018-09-14T06:34:28.773Z,1014.02
2018-09-14T06:35:28.769Z,1014.04
2018-09-14T06:36:29.197Z,1014.05
2018-09-14T06:37:28.530Z,1014.04
2018-09-14T06:38:28.588Z,1014.02
2018-09-14T06:39:28.584Z,1014.00
2018-09-14T06:40:28.437Z,1014.01
2018-09-14T06:41:29.619Z,1014.04
2018-09-14T06:42:28.696Z,1014.07
2018-09-14T06:43:34.000Z,1014.02
2018-09-14T06:44:28.443Z,1014.03
2018-09-14T06:45:30.668Z,1014.04
2018-09-14T06:46:28.383Z,1014.04
2018-09-14T06:47:28.405Z,1014.06
2018-09-14T06:48:28.701Z,1014.00
2018-09-14T06:49:28.342Z,1013.99
2018-09-14T06:50:28.344Z,1014.04
2018-09-14T06:51:28.388Z,1014.01
2018-09-14T06:52:29.311Z,1014.01
2018-09-14T06:53:28.467Z,1014.02
2018-09-14T06:54:28.311Z,1014.02
2018-09-14T06:55:28.292Z,1013.97
2018-09-14T06:56:28.285Z,1014.03
2018-09-14T06:57:28.770Z,1014.02
2018-09-14T06:58:28.259Z,1014.04
2018-09-14T06:59:28.539Z,1014.04
2018-09-14T07:00:28.671Z,1014.07
2018-09-14T07:01:28.234Z,1014.04
2018-09-14T07:02:28.207Z,1014.05
2018-09-14T07:03:28.230Z,1014.07
2018-09-14T07:04:28.185Z,1014.06
2018-09-14T07:05:28.176Z,1014.10
2018-09-14T07:06:28.245Z,1014.08
2018-09-14T07:07:29.990Z,1014.08
2018-09-14T07:08:28.700Z,1014.10
2018-09-14T07:09:28.900Z,1014.13
2018-09-14T07:10:28.983Z,1014.12
2018-09-14T07:11:28.434Z,1014.14
2018-09-14T07:12:28.239Z,1014.15
2018-09-14T07:13:28.238Z,1014.13
2018-09-14T07:14:29.604Z,1014.14
2018-09-14T07:15:28.069Z,1014.14
2018-09-14T07:16:28.096Z,1014.14
2018-09-14T07:17:29.652Z,1014.14
2018-09-14T07:18:28.033Z,1014.18
2018-09-14T07:19:28.020Z,1014.16
2018-09-14T07:20:28.013Z,1014.14
2018-09-14T07:21:28.343Z,1014.22
2018-09-14T07:22:28.008Z,1014.23
2018-09-14T07:23:28.022Z,1014.21
2018-09-14T07:24:28.307Z,1014.21
2018-09-14T07:25:27.979Z,1014.20
2018-09-14T07:26:27.954Z,1014.23
2018-09-14T07:27:27.949Z,1014.25
2018-09-14T07:28:27.933Z,1014.24
2018-09-14T07:29:28.105Z,1014.25
2018-09-14T07:30:27.935Z,1014.23
2018-09-14T07:31:28.060Z,1014.26
2018-09-14T07:32:28.186Z,1014.31
2018-09-14T07:33:27.904Z,1014.31
2018-09-14T07:34:28.491Z,1014.26
2018-09-14T07:35:27.975Z,1014.30
2018-09-14T07:36:28.125Z,1014.30
2018-09-14T07:37:27.851Z,1014.31
2018-09-14T07:38:28.045Z,1014.34
2018-09-14T07:39:27.936Z,1014.29
2018-09-14T07:40:27.805Z,1014.30
2018-09-14T07:41:28.526Z,1014.33
2018-09-14T07:42:27.922Z,1014.30
2018-09-14T07:43:27.924Z,1014.32
2018-09-14T07:44:27.807Z,1014.31
2018-09-14T07:45:28.021Z,1014.30
2018-09-14T07:46:27.864Z,1014.27
2018-09-14T07:47:28.257Z,1014.27
2018-09-14T07:48:27.807Z,1014.31
2018-09-14T07:49:27.908Z,1014.30
2018-09-14T07:50:27.889Z,1014.29
2018-09-14T07:51:27.801Z,1014.31
2018-09-14T07:52:27.693Z,1014.35
2018-09-14T07:53:27.953Z,1014.37
2018-09-14T07:54:28.082Z,1014.36
2018-09-14T07:55:27.841Z,1014.40
2018-09-14T07:56:27.774Z,1014.40
2018-09-14T07:57:28.431Z,1014.36
2018-09-14T07:58:27.640Z,1014.39
2018-09-14T07:59:27.872Z,1014.39
2018-09-14T08:00:27.708Z,1014.36
2018-09-14T08:01:27.661Z,1014.38
2018-09-14T08:02:27.562Z,1014.37
2018-09-14T08:03:27.580Z,1014.35
2018-09-14T08:04:27.814Z,1014.33
2018-09-14T08:05:27.560Z,1014.33
2018-09-14T08:06:27.862Z,1014.33
2018-09-14T08:07:27.681Z,1014.30
2018-09-14T08:08:27.510Z,1014.35
2018-09-14T08:09:27.487Z,1014.34
2018-09-14T08:10:27.482Z,1014.33
2018-09-14T08:11:27.483Z,1014.35
2018-09-14T08:12:28.372Z,1014.31
2018-09-14T08:13:27.493Z,1014.26
2018-09-14T08:14:27.438Z,1014.29
2018-09-14T08:15:27.448Z,1014.30
2018-09-14T08:16:27.420Z,1014.32
2018-09-14T08:17:27.692Z,1014.31
2018-09-14T08:18:27.667Z,1014.27
2018-09-14T08:19:27.409Z,1014.26
2018-09-14T08:20:27.369Z,1014.27
2018-09-14T08:21:27.454Z,1014.27
2018-09-14T08:22:27.364Z,1014.24
2018-09-14T08:23:27.352Z,1014.29
2018-09-14T08:24:27.354Z,1014.28
2018-09-14T08:25:27.344Z,1014.28
2018-09-14T08:26:27.310Z,1014.27
2018-09-14T08:27:27.353Z,1014.29
2018-09-14T08:28:27.404Z,1014.29
2018-09-14T08:29:27.329Z,1014.29
2018-09-14T08:30:27.270Z,1014.36
2018-09-14T08:31:27.579Z,1014.35
2018-09-14T08:32:27.342Z,1014.32
2018-09-14T08:33:27.377Z,1014.33
2018-09-14T08:34:27.243Z,1014.31
2018-09-14T08:35:27.218Z,1014.34
2018-09-14T08:36:27.212Z,1014.32
2018-09-14T08:37:27.187Z,1014.35
2018-09-14T08:38:27.462Z,1014.32
2018-09-14T08:39:27.190Z,1014.32
2018-09-14T08:40:27.258Z,1014.38
2018-09-14T08:41:27.215Z,1014.35
2018-09-14T08:42:27.137Z,1014.41
2018-09-14T08:43:27.123Z,1014.41
2018-09-14T08:44:27.196Z,1014.40
2018-09-14T08:45:27.257Z,1014.41
2018-09-14T08:46:27.104Z,1014.41
2018-09-14T08:47:27.088Z,1014.45
2018-09-14T08:48:27.094Z,1014.44
2018-09-14T08:49:27.502Z,1014.42
2018-09-14T08:50:27.062Z,1014.49
2018-09-14T08:51:27.060Z,1014.51
2018-09-14T08:52:27.046Z,1014.48
2018-09-14T08:53:27.144Z,1014.51
2018-09-14T08:54:27.029Z,1014.52
2018-09-14T08:55:27.132Z,1014.48
2018-09-14T08:56:27.241Z,1014.45
2018-09-14T08:57:26.997Z,1014.46
2018-09-14T08:58:27.127Z,1014.44
2018-09-14T08:59:27.357Z,1014.47
2018-09-14T09:00:27.212Z,1014.45
2018-09-14T09:01:27.962Z,1014.37
2018-09-14T09:02:26.944Z,1014.40
2018-09-14T09:03:27.095Z,1014.38
2018-09-14T09:04:27.041Z,1014.35
2018-09-14T09:05:27.058Z,1014.39
2018-09-14T09:06:27.490Z,1014.38
2018-09-14T09:07:26.881Z,1014.37
2018-09-14T09:08:26.977Z,1014.44
2018-09-14T09:09:27.454Z,1014.42
2018-09-14T09:10:26.932Z,1014.42
2018-09-14T09:11:26.861Z,1014.43
2018-09-14T09:12:26.834Z,1014.40
2018-09-14T09:13:26.911Z,1014.39
2018-09-14T09:14:35.640Z,1014.36
2018-09-14T09:15:51.284Z,1014.35
2018-09-14T09:16:36.200Z,1014.39
2018-09-14T09:17:41.190Z,1014.36
2018-09-14T09:18:40.791Z,1014.33
2018-09-14T09:20:28.873Z,1014.32
2018-09-14T09:21:26.987Z,1014.26
2018-09-14T09:22:26.707Z,1014.28
2018-09-14T09:23:26.967Z,1014.24
2018-09-14T09:24:27.710Z,1014.27
2018-09-14T09:25:29.322Z,1014.24
2018-09-14T09:26:26.841Z,1014.25
2018-09-14T09:27:26.694Z,1014.20
2018-09-14T09:28:26.649Z,1014.20
2018-09-14T09:29:26.770Z,1014.16
2018-09-14T09:30:26.772Z,1014.16
2018-09-14T09:31:26.617Z,1014.16
2018-09-14T09:32:26.726Z,1014.21
2018-09-14T09:33:26.586Z,1014.20
2018-09-14T09:34:26.586Z,1014.21
2018-09-14T09:35:27.547Z,1014.22
2018-09-14T09:36:26.674Z,1014.19
2018-09-14T09:37:26.548Z,1014.19
2018-09-14T09:38:26.545Z,1014.18
2018-09-14T09:39:26.531Z,1014.21
2018-09-14T09:40:27.532Z,1014.23
2018-09-14T09:41:26.534Z,1014.19
2018-09-14T09:42:26.504Z,1014.18
2018-09-14T09:43:26.578Z,1014.19
2018-09-14T09:44:26.611Z,1014.18
2018-09-14T09:45:26.575Z,1014.18
2018-09-14T09:46:26.791Z,1014.20
2018-09-14T09:47:26.738Z,1014.20
2018-09-14T09:48:26.542Z,1014.17
2018-09-14T09:49:26.431Z,1014.19
2018-09-14T09:50:26.721Z,1014.16
2018-09-14T09:51:26.439Z,1014.18
2018-09-14T09:52:26.413Z,1014.16
2018-09-14T09:53:27.450Z,1014.18
2018-09-14T09:54:26.508Z,1014.19
2018-09-14T09:55:26.639Z,1014.17
2018-09-14T09:56:26.358Z,1014.17
2018-09-14T09:57:27.429Z,1014.18
2018-09-14T09:58:26.317Z,1014.18
2018-09-14T09:59:26.847Z,1014.19
2018-09-14T10:00:26.398Z,1014.23
2018-09-14T10:01:26.303Z,1014.18
2018-09-14T10:02:26.298Z,1014.22
2018-09-14T10:03:26.277Z,1014.21
2018-09-14T10:04:26.272Z,1014.20
2018-09-14T10:05:26.279Z,1014.24
2018-09-14T10:06:26.288Z,1014.19
2018-09-14T10:07:26.320Z,1014.22
2018-09-14T10:08:26.348Z,1014.16
2018-09-14T10:09:26.266Z,1014.17
2018-09-14T10:10:26.213Z,1014.16
2018-09-14T10:11:26.199Z,1014.18
2018-09-14T10:12:26.346Z,1014.18
2018-09-14T10:13:26.442Z,1014.15
2018-09-14T10:14:26.152Z,1014.14
2018-09-14T10:15:26.156Z,1014.15
2018-09-14T10:16:26.196Z,1014.10
2018-09-14T10:17:26.147Z,1014.13
2018-09-14T10:18:26.469Z,1014.11
2018-09-14T10:19:26.428Z,1014.09
2018-09-14T10:20:26.129Z,1014.09
2018-09-14T10:21:26.179Z,1014.11
2018-09-14T10:22:26.088Z,1014.09
2018-09-14T10:23:26.138Z,1014.09
2018-09-14T10:24:26.043Z,1014.08
2018-09-14T10:25:26.048Z,1014.08
2018-09-14T10:26:26.072Z,1014.07
2018-09-14T10:27:26.034Z,1014.06
2018-09-14T10:28:27.058Z,1014.03
2018-09-14T10:29:26.309Z,1014.03
2018-09-14T10:30:26.213Z,1014.04
2018-09-14T10:31:25.993Z,1014.01
2018-09-14T10:32:26.072Z,1014.03
2018-09-14T10:33:26.614Z,1014.01
2018-09-14T10:34:26.074Z,1014.01
2018-09-14T10:35:26.056Z,1014.03
2018-09-14T10:36:25.988Z,1013.97
2018-09-14T10:37:25.917Z,1013.96
2018-09-14T10:38:25.940Z,1014.01
2018-09-14T10:39:25.900Z,1013.99
2018-09-14T10:40:25.961Z,1013.97
2018-09-14T10:41:25.874Z,1013.98
2018-09-14T10:42:25.999Z,1013.97
2018-09-14T10:43:25.864Z,1013.91
2018-09-14T10:44:25.993Z,1013.88
2018-09-14T10:45:26.008Z,1013.88
2018-09-14T10:46:25.883Z,1013.86
2018-09-14T10:47:26.183Z,1013.87
2018-09-14T10:48:25.888Z,1013.84
2018-09-14T10:49:25.791Z,1013.86
2018-09-14T10:50:25.899Z,1013.85
2018-09-14T10:51:25.761Z,1013.81
2018-09-14T10:52:25.780Z,1013.77
2018-09-14T10:53:27.386Z,1013.81
2018-09-14T10:54:25.729Z,1013.75
2018-09-14T10:55:26.168Z,1013.76
2018-09-14T10:56:25.728Z,1013.72
2018-09-14T10:57:25.722Z,1013.76
2018-09-14T10:58:25.954Z,1013.73
2018-09-14T10:59:25.745Z,1013.76
2018-09-14T11:00:25.921Z,1013.75
2018-09-14T11:01:25.659Z,1013.69
2018-09-14T11:02:26.058Z,1013.72
2018-09-14T11:03:25.631Z,1013.70
2018-09-14T11:04:25.810Z,1013.72
2018-09-14T11:05:25.680Z,1013.71
2018-09-14T11:06:25.638Z,1013.71
2018-09-14T11:07:25.744Z,1013.74
2018-09-14T11:08:25.705Z,1013.74
2018-09-14T11:09:25.672Z,1013.72
2018-09-14T11:10:25.980Z,1013.75
2018-09-14T11:11:24.565Z,1013.71
2018-09-14T11:12:25.707Z,1013.67
2018-09-14T11:13:25.527Z,1013.69
2018-09-14T11:14:26.049Z,1013.71
2018-09-14T11:15:26.665Z,1013.70
2018-09-14T11:16:25.607Z,1013.74
2018-09-14T11:17:25.769Z,1013.72
2018-09-14T11:18:25.675Z,1013.68
2018-09-14T11:19:25.771Z,1013.71
2018-09-14T11:20:25.641Z,1013.69
2018-09-14T11:21:25.434Z,1013.60
2018-09-14T11:22:25.428Z,1013.66
2018-09-14T11:23:25.430Z,1013.59
2018-09-14T11:24:25.573Z,1013.61
2018-09-14T11:25:25.501Z,1013.63
2018-09-14T11:26:25.408Z,1013.67
2018-09-14T11:27:25.462Z,1013.60
2018-09-14T11:28:25.646Z,1013.60
2018-09-14T11:29:25.573Z,1013.57
2018-09-14T11:30:26.342Z,1013.63
2018-09-14T11:31:25.389Z,1013.61
2018-09-14T11:32:25.907Z,1013.61
2018-09-14T11:33:25.326Z,1013.63
2018-09-14T11:34:25.363Z,1013.67
2018-09-14T11:35:25.289Z,1013.62
2018-09-14T11:36:25.284Z,1013.64
2018-09-14T11:37:25.325Z,1013.60
2018-09-14T11:38:28.638Z,1013.65
2018-09-14T11:39:25.514Z,1013.61
2018-09-14T11:40:25.251Z,1013.56
2018-09-14T11:41:25.343Z,1013.55
2018-09-14T11:42:25.218Z,1013.50
2018-09-14T11:43:25.349Z,1013.53
2018-09-14T11:44:25.332Z,1013.48
2018-09-14T11:45:25.233Z,1013.43
2018-09-14T11:46:26.346Z,1013.43
2018-09-14T11:47:24.228Z,1013.44
2018-09-14T11:48:25.161Z,1013.42
2018-09-14T11:49:25.273Z,1013.43
2018-09-14T11:50:25.523Z,1013.45
2018-09-14T11:51:25.263Z,1013.41
2018-09-14T11:52:25.109Z,1013.41
2018-09-14T11:53:25.383Z,1013.38
2018-09-14T11:54:24.152Z,1013.36
2018-09-14T11:55:25.078Z,1013.31
2018-09-14T11:56:25.440Z,1013.30
2018-09-14T11:57:25.054Z,1013.26
2018-09-14T11:58:25.165Z,1013.31
2018-09-14T11:59:25.209Z,1013.24
2018-09-14T12:00:25.038Z,1013.24
2018-09-14T12:01:25.147Z,1013.21
2018-09-14T12:02:25.068Z,1013.23
2018-09-14T12:03:25.065Z,1013.21
2018-09-14T12:04:25.370Z,1013.19
2018-09-14T12:05:25.088Z,1013.22
2018-09-14T12:06:24.969Z,1013.18